Woodbury, Indiana
Current Conditions -  °F | °C
As of 2:55 PM on Sunday 23 Nov 2014 (Local Time) from KMQJ Reporting Station
Overcast Overcast  
Wind Chill: 11°   Ceiling: 1500
Heat Index: 11°   Visibility: 2.5mi
Dew Point: 11°   Wind: 14mph
Humidity: 100%   Direction: 140°SE
Pressure: 29.62"   Gusts: 18mph
Location:  39.9249°N, 85.9217°W
Report Text: KMQJ 231955Z AUTO 14012G16KT 2 1/2SM SCT010 BKN015 OVC025 11/11 A2962 RMK AO1
Loading
Personal Weather Stations






























Interactive Weather Map New forecast layout! Learn more

10-Day Weather Forecast

Advertisements
Track Severe Weather on mobile